createdAt,value
2018-03-14T00:02:26.443Z,66.65
2018-03-14T00:04:54.839Z,67.57
2018-03-14T00:07:23.246Z,69.36
2018-03-14T00:09:51.648Z,67.46
2018-03-14T00:12:20.176Z,63.59
2018-03-14T00:14:48.696Z,65.61
2018-03-14T00:17:17.116Z,65.19
2018-03-14T00:19:45.628Z,63.47
2018-03-14T00:22:25.617Z,64.09
2018-03-14T00:24:54.059Z,64.85
2018-03-14T00:27:22.467Z,65.80
2018-03-14T00:29:50.889Z,64.46
2018-03-14T00:32:20.740Z,63.49
2018-03-14T00:34:49.228Z,63.04
2018-03-14T00:37:17.718Z,62.96
2018-03-14T00:39:46.148Z,67.32
2018-03-14T00:42:14.559Z,67.90
2018-03-14T00:44:42.964Z,66.80
2018-03-14T00:47:11.396Z,64.29
2018-03-14T00:49:39.793Z,63.34
2018-03-14T00:52:08.208Z,66.89
2018-03-14T00:54:36.609Z,66.06
2018-03-14T00:57:05.103Z,63.13
2018-03-14T00:59:33.541Z,64.03
2018-03-14T01:02:02.259Z,62.27
2018-03-14T01:04:30.764Z,66.61
2018-03-14T01:06:59.191Z,65.64
2018-03-14T01:09:27.600Z,64.83
2018-03-14T01:11:56.024Z,66.54
2018-03-14T01:14:24.520Z,66.82
2018-03-14T01:16:52.931Z,67.74
2018-03-14T01:19:21.312Z,66.05
2018-03-14T01:21:49.691Z,65.25
2018-03-14T01:24:18.107Z,64.56
2018-03-14T01:26:46.501Z,68.09
2018-03-14T01:29:14.892Z,63.64
2018-03-14T01:31:43.331Z,63.96
2018-03-14T01:34:11.748Z,68.05
2018-03-14T01:36:40.158Z,67.72
2018-03-14T01:39:08.578Z,66.24
2018-03-14T01:41:37.000Z,64.79
2018-03-14T01:44:05.427Z,68.71
2018-03-14T01:46:33.816Z,67.35
2018-03-14T01:49:02.202Z,65.95
2018-03-14T01:51:30.640Z,68.99
2018-03-14T01:53:59.020Z,67.90
2018-03-14T01:56:27.406Z,66.45
2018-03-14T01:58:55.931Z,67.34
2018-03-14T02:01:24.478Z,67.46
2018-03-14T02:03:52.869Z,64.38
2018-03-14T02:06:21.284Z,65.34
2018-03-14T02:08:49.669Z,67.08
2018-03-14T02:11:18.103Z,66.11
2018-03-14T02:13:46.472Z,65.12
2018-03-14T02:16:14.944Z,65.83
2018-03-14T02:18:43.304Z,65.35
2018-03-14T02:21:11.706Z,62.96
2018-03-14T02:23:40.083Z,63.83
2018-03-14T02:26:08.477Z,64.65
2018-03-14T02:28:37.035Z,66.61
2018-03-14T02:31:05.409Z,67.02
2018-03-14T02:33:33.819Z,66.96
2018-03-14T02:36:02.207Z,65.92
2018-03-14T02:38:30.616Z,65.29
2018-03-14T02:40:59.025Z,67.48
2018-03-14T02:43:27.396Z,64.96
2018-03-14T02:45:55.780Z,61.72
2018-03-14T02:48:24.135Z,63.59
2018-03-14T02:50:52.530Z,64.35
2018-03-14T02:53:20.881Z,62.98
2018-03-14T02:55:49.293Z,61.93
2018-03-14T02:58:17.663Z,61.64
2018-03-14T03:00:46.035Z,63.63
2018-03-14T03:03:14.408Z,61.22
2018-03-14T03:05:42.832Z,62.67
2018-03-14T03:08:11.627Z,63.35
2018-03-14T03:10:39.992Z,62.41
2018-03-14T03:13:08.374Z,62.52
2018-03-14T03:15:36.743Z,61.12
2018-03-14T03:18:05.103Z,62.22
2018-03-14T03:20:33.536Z,64.56
2018-03-14T03:23:01.918Z,65.00
2018-03-14T03:25:30.280Z,65.86
2018-03-14T03:27:58.635Z,63.45
2018-03-14T03:30:27.101Z,63.97
2018-03-14T03:32:55.623Z,62.91
2018-03-14T03:35:23.985Z,61.39
2018-03-14T03:37:52.374Z,61.60
2018-03-14T03:40:20.732Z,63.96
2018-03-14T03:42:49.128Z,64.65
2018-03-14T03:45:17.648Z,63.11
2018-03-14T03:47:46.036Z,62.02
2018-03-14T03:50:14.403Z,63.95
2018-03-14T03:52:42.752Z,62.13
2018-03-14T03:55:11.105Z,63.31
2018-03-14T03:57:39.491Z,62.28
2018-03-14T04:00:30.832Z,64.44
2018-03-14T04:02:59.228Z,66.83
2018-03-14T04:05:27.648Z,65.41
2018-03-14T04:07:55.986Z,65.51
2018-03-14T04:10:24.393Z,64.23
2018-03-14T04:12:54.139Z,64.10
2018-03-14T04:15:22.589Z,66.36
2018-03-14T04:17:50.985Z,66.67
2018-03-14T04:20:19.388Z,67.41
2018-03-14T04:22:47.759Z,65.44
2018-03-14T04:25:16.177Z,66.25
2018-03-14T04:27:44.628Z,68.94
2018-03-14T04:30:13.064Z,64.65
2018-03-14T04:32:41.532Z,65.26
2018-03-14T04:35:09.905Z,67.90
2018-03-14T04:37:38.303Z,68.67
2018-03-14T04:40:06.758Z,69.56
2018-03-14T04:42:35.166Z,65.12
2018-03-14T04:45:03.563Z,63.51
2018-03-14T04:47:32.174Z,62.79
2018-03-14T04:50:00.577Z,62.52
2018-03-14T04:52:29.034Z,63.85
2018-03-14T04:54:57.404Z,63.71
2018-03-14T04:57:25.823Z,63.38
2018-03-14T04:59:54.228Z,63.71
2018-03-14T05:02:22.628Z,63.23
2018-03-14T05:04:51.496Z,62.53
2018-03-14T05:07:19.895Z,60.83
2018-03-14T05:09:48.300Z,62.65
2018-03-14T05:12:16.694Z,63.30
2018-03-14T05:14:45.093Z,65.17
2018-03-14T05:17:13.935Z,66.79
2018-03-14T05:19:42.405Z,66.36
2018-03-14T05:22:10.815Z,64.85
2018-03-14T05:24:39.288Z,64.60
2018-03-14T05:27:07.671Z,63.92
2018-03-14T05:29:36.152Z,65.72
2018-03-14T05:32:04.561Z,64.99
2018-03-14T05:34:32.973Z,63.60
2018-03-14T05:37:01.405Z,63.81
2018-03-14T05:39:29.808Z,67.66
2018-03-14T05:41:58.281Z,63.48
2018-03-14T05:44:27.046Z,65.04
2018-03-14T05:46:55.445Z,66.08
2018-03-14T05:49:23.817Z,65.26
2018-03-14T05:51:52.229Z,66.24
2018-03-14T05:54:20.613Z,65.53
2018-03-14T05:56:49.085Z,67.28
2018-03-14T05:59:17.521Z,61.58
2018-03-14T06:01:46.019Z,60.78
2018-03-14T06:04:14.427Z,60.91
2018-03-14T06:06:42.890Z,61.63
2018-03-14T06:09:11.327Z,62.09
2018-03-14T06:11:39.756Z,63.36
2018-03-14T06:14:08.267Z,64.03
2018-03-14T06:16:36.662Z,62.32
2018-03-14T06:19:05.064Z,61.71
2018-03-14T06:21:33.484Z,62.95
2018-03-14T06:24:01.912Z,60.99
2018-03-14T06:26:30.303Z,62.82
2018-03-14T06:28:58.884Z,60.92
2018-03-14T06:31:27.294Z,62.08
2018-03-14T06:33:55.796Z,62.56
2018-03-14T06:36:24.187Z,62.70
2018-03-14T06:38:52.594Z,59.67
2018-03-14T06:41:21.067Z,60.40
2018-03-14T06:43:49.477Z,58.96
2018-03-14T06:46:17.970Z,59.12
2018-03-14T06:48:46.375Z,60.07
2018-03-14T06:51:14.771Z,59.95
2018-03-14T06:53:43.172Z,60.40
2018-03-14T06:56:11.567Z,59.19
2018-03-14T06:58:51.829Z,59.27
2018-03-14T07:01:31.964Z,58.98
2018-03-14T07:04:12.338Z,61.51
2018-03-14T07:06:40.745Z,63.93
2018-03-14T07:09:09.175Z,61.52
2018-03-14T07:11:37.568Z,60.74
2018-03-14T07:14:06.019Z,61.76
2018-03-14T07:16:34.472Z,60.98
2018-03-14T07:19:02.884Z,59.81
2018-03-14T07:21:31.383Z,61.20
2018-03-14T07:23:59.795Z,59.53
2018-03-14T07:26:28.195Z,60.38
2018-03-14T07:28:56.616Z,57.70
2018-03-14T07:31:25.025Z,58.75
2018-03-14T07:33:53.593Z,59.05
2018-03-14T07:36:21.998Z,58.32
2018-03-14T07:38:50.388Z,59.38
2018-03-14T07:41:18.889Z,58.29
2018-03-14T07:43:47.304Z,61.54
2018-03-14T07:46:15.809Z,59.38
2018-03-14T07:48:44.206Z,59.42
2018-03-14T07:51:12.622Z,59.27
2018-03-14T07:53:41.042Z,58.33
2018-03-14T07:56:09.436Z,58.82
2018-03-14T07:58:37.852Z,58.06
2018-03-14T08:01:06.294Z,59.93
2018-03-14T08:03:34.716Z,59.21
2018-03-14T08:06:03.112Z,60.24
2018-03-14T08:08:31.520Z,59.10
2018-03-14T08:10:59.927Z,58.91
2018-03-14T08:13:28.414Z,60.29
2018-03-14T08:15:56.912Z,60.66
2018-03-14T08:21:12.487Z,58.90
2018-03-14T08:23:40.897Z,58.21
2018-03-14T08:26:09.300Z,59.34
2018-03-14T08:28:37.780Z,58.77
2018-03-14T08:31:06.197Z,58.15
2018-03-14T08:33:34.671Z,57.41
2018-03-14T08:36:03.055Z,58.98
2018-03-14T08:38:31.472Z,60.59
2018-03-14T08:40:59.894Z,59.13
2018-03-14T08:43:28.301Z,59.04
2018-03-14T08:45:56.767Z,57.83
2018-03-14T08:48:25.172Z,57.76
2018-03-14T08:50:53.580Z,55.89
2018-03-14T08:53:21.993Z,56.09
2018-03-14T08:55:50.416Z,57.24
2018-03-14T08:58:18.868Z,56.99
2018-03-14T09:00:47.272Z,57.45
2018-03-14T09:03:15.676Z,56.92
2018-03-14T09:05:44.077Z,58.30
2018-03-14T09:08:12.491Z,57.88
2018-03-14T09:10:41.040Z,56.07
2018-03-14T09:13:09.432Z,58.26
2018-03-14T09:15:37.921Z,56.33
2018-03-14T09:18:06.337Z,57.36
2018-03-14T09:20:34.750Z,57.46
2018-03-14T09:23:03.403Z,60.11
2018-03-14T09:25:31.805Z,57.62
2018-03-14T09:28:00.196Z,57.55
2018-03-14T09:30:28.594Z,55.72
2018-03-14T09:32:56.983Z,57.32
2018-03-14T09:35:25.548Z,55.78
2018-03-14T09:37:53.944Z,58.07
2018-03-14T09:40:22.350Z,56.02
2018-03-14T09:42:50.740Z,57.21
2018-03-14T09:45:19.157Z,57.02
2018-03-14T09:47:47.614Z,56.89
2018-03-14T09:50:16.945Z,55.00
2018-03-14T09:52:45.426Z,55.96
2018-03-14T09:55:14.215Z,56.93
2018-03-14T09:57:43.060Z,55.87
2018-03-14T10:00:12.059Z,56.59
2018-03-14T10:02:40.851Z,55.09
2018-03-14T10:05:09.839Z,54.96
2018-03-14T10:07:38.886Z,56.44
2018-03-14T10:10:07.696Z,56.08
2018-03-14T10:12:36.453Z,55.79
2018-03-14T10:15:04.840Z,54.56
2018-03-14T10:17:33.264Z,56.61
2018-03-14T10:20:01.679Z,55.88
2018-03-14T10:22:30.125Z,55.50
2018-03-14T10:24:58.592Z,55.93
2018-03-14T10:27:27.007Z,56.23
2018-03-14T10:29:55.412Z,55.82
2018-03-14T10:32:23.815Z,55.75
2018-03-14T10:34:52.251Z,55.70
2018-03-14T10:37:20.705Z,54.63
2018-03-14T10:39:49.103Z,52.89
2018-03-14T10:42:17.510Z,53.21
2018-03-14T10:44:45.910Z,52.99
2018-03-14T10:47:14.323Z,51.91
2018-03-14T10:49:42.796Z,52.21
2018-03-14T10:52:11.214Z,53.39
2018-03-14T10:54:39.599Z,52.72
2018-03-14T10:57:08.018Z,54.80
2018-03-14T10:59:36.435Z,56.27
2018-03-14T11:02:10.506Z,54.37
2018-03-14T11:04:38.907Z,54.75
2018-03-14T11:07:07.327Z,54.10
2018-03-14T11:09:35.727Z,56.50
2018-03-14T11:12:05.248Z,54.31
2018-03-14T11:14:33.656Z,53.33
2018-03-14T11:17:02.170Z,51.02
2018-03-14T11:19:30.563Z,50.19
2018-03-14T11:21:59.023Z,48.07
2018-03-14T11:24:27.468Z,50.15
2018-03-14T11:26:55.976Z,49.05
2018-03-14T11:29:24.408Z,47.84
2018-03-14T11:31:52.802Z,48.36
2018-03-14T11:34:21.188Z,50.75
2018-03-14T11:36:49.718Z,50.93
2018-03-14T11:39:18.139Z,50.44
2018-03-14T11:41:46.544Z,48.95
2018-03-14T11:44:14.951Z,45.99
2018-03-14T11:46:43.425Z,48.08
2018-03-14T11:49:11.956Z,48.08
2018-03-14T11:51:40.283Z,48.92
2018-03-14T11:54:08.777Z,45.82
2018-03-14T11:56:37.189Z,44.42
2018-03-14T11:59:05.599Z,43.35
2018-03-14T12:01:34.058Z,44.18
2018-03-14T12:04:02.475Z,46.71
2018-03-14T12:06:30.857Z,46.77
2018-03-14T12:08:59.257Z,47.68
2018-03-14T12:11:27.650Z,47.01
2018-03-14T12:13:56.137Z,46.37
2018-03-14T12:16:24.749Z,44.46
2018-03-14T12:18:53.217Z,44.46
2018-03-14T12:21:21.657Z,44.11
2018-03-14T12:23:50.651Z,42.67
2018-03-14T12:26:19.263Z,44.57
2018-03-14T12:28:47.622Z,44.86
2018-03-14T12:31:16.076Z,43.77
2018-03-14T12:33:44.472Z,42.93
2018-03-14T12:36:12.875Z,45.64
2018-03-14T12:38:41.370Z,46.94
2018-03-14T12:41:09.755Z,44.77
2018-03-14T12:43:38.177Z,46.91
2018-03-14T12:46:06.581Z,46.27
2018-03-14T12:48:34.986Z,45.51
2018-03-14T12:51:03.591Z,45.23
2018-03-14T12:53:31.994Z,45.66
2018-03-14T12:56:00.396Z,45.57
2018-03-14T12:58:28.804Z,44.46
2018-03-14T13:00:57.207Z,44.43
2018-03-14T13:03:25.664Z,45.04
2018-03-14T13:05:54.085Z,44.76
2018-03-14T13:08:22.475Z,46.16
2018-03-14T13:10:50.863Z,45.13
2018-03-14T13:13:19.270Z,46.02
2018-03-14T13:15:47.825Z,44.81
2018-03-14T13:18:16.215Z,45.23
2018-03-14T13:20:44.680Z,45.20
2018-03-14T13:23:13.126Z,45.85
2018-03-14T13:25:41.530Z,44.44
2018-03-14T13:28:10.041Z,43.98
2018-03-14T13:30:41.487Z,45.12
2018-03-14T13:33:10.899Z,45.00
2018-03-14T13:35:39.287Z,45.86
2018-03-14T13:38:07.712Z,48.34
2018-03-14T13:40:36.103Z,48.40
2018-03-14T13:43:04.507Z,47.45
2018-03-14T13:45:33.377Z,50.23
2018-03-14T13:48:01.810Z,48.72
2018-03-14T13:50:30.231Z,48.74
2018-03-14T13:52:58.749Z,47.84
2018-03-14T13:55:27.157Z,46.76
2018-03-14T13:57:55.608Z,47.58
2018-03-14T14:00:24.012Z,47.67
2018-03-14T14:02:52.480Z,49.70
2018-03-14T14:05:21.047Z,47.17
2018-03-14T14:07:49.434Z,46.42
2018-03-14T14:10:17.948Z,47.28
2018-03-14T14:12:46.353Z,47.68
2018-03-14T14:15:14.760Z,47.94
2018-03-14T14:17:43.199Z,47.68
2018-03-14T14:20:11.577Z,46.82
2018-03-14T14:22:40.140Z,48.07
2018-03-14T14:25:08.556Z,47.90
2018-03-14T14:27:37.027Z,46.86
2018-03-14T14:30:05.403Z,47.40
2018-03-14T14:32:33.909Z,46.87
2018-03-14T14:35:02.389Z,46.75
2018-03-14T14:37:30.816Z,45.79
2018-03-14T14:39:59.233Z,46.96
2018-03-14T14:42:27.704Z,48.66
2018-03-14T14:44:56.108Z,46.78
2018-03-14T14:47:24.602Z,46.98
2018-03-14T14:49:53.044Z,47.15
2018-03-14T14:52:21.502Z,47.80
2018-03-14T14:54:49.928Z,45.28
2018-03-14T14:57:18.348Z,44.05
2018-03-14T14:59:46.826Z,45.17
2018-03-14T15:02:15.242Z,45.19
2018-03-14T15:04:43.688Z,43.70
2018-03-14T15:07:12.111Z,44.26
2018-03-14T15:09:40.585Z,47.02
2018-03-14T15:12:09.094Z,46.04
2018-03-14T15:14:37.490Z,44.29
2018-03-14T15:17:06.024Z,44.72
2018-03-14T15:19:34.469Z,44.37
2018-03-14T15:22:02.864Z,46.31
2018-03-14T15:24:31.389Z,45.66
2018-03-14T15:26:59.835Z,43.48
2018-03-14T15:29:28.218Z,42.97
2018-03-14T15:31:56.746Z,44.22
2018-03-14T15:34:25.196Z,46.22
2018-03-14T15:36:53.668Z,45.83
2018-03-14T15:39:22.058Z,44.58
2018-03-14T15:41:50.455Z,46.25
2018-03-14T15:44:18.868Z,45.37
2018-03-14T15:46:47.280Z,45.05
2018-03-14T15:49:15.748Z,46.08
2018-03-14T15:51:44.159Z,46.79
2018-03-14T15:54:12.521Z,45.18
2018-03-14T15:56:40.995Z,44.55
2018-03-14T15:59:09.476Z,44.74
2018-03-14T16:01:38.064Z,45.20
2018-03-14T16:04:06.512Z,45.29
2018-03-14T16:06:34.929Z,45.25
2018-03-14T16:09:03.335Z,46.78
2018-03-14T16:11:31.741Z,45.54
2018-03-14T16:14:00.344Z,47.31
2018-03-14T16:16:28.756Z,47.27
2018-03-14T16:18:57.230Z,45.40
2018-03-14T16:21:25.636Z,45.42
2018-03-14T16:23:54.069Z,46.42
2018-03-14T16:26:22.489Z,46.45
2018-03-14T16:28:50.891Z,49.60
2018-03-14T16:31:19.459Z,49.17
2018-03-14T16:33:49.033Z,48.67
2018-03-14T16:36:17.493Z,49.50
2018-03-14T16:38:45.897Z,50.73
2018-03-14T16:41:14.314Z,50.37
2018-03-14T16:43:42.880Z,50.03
2018-03-14T16:46:11.271Z,49.96
2018-03-14T16:48:39.727Z,50.14
2018-03-14T16:51:08.159Z,49.25
2018-03-14T16:53:36.556Z,51.73
2018-03-14T16:56:04.965Z,49.67
2018-03-14T16:58:33.378Z,49.69
2018-03-14T17:01:01.871Z,49.32
2018-03-14T17:03:30.306Z,51.70
2018-03-14T17:05:58.703Z,53.55
2018-03-14T17:08:27.099Z,55.17
2018-03-14T17:10:55.598Z,54.21
2018-03-14T17:13:24.055Z,54.33
2018-03-14T17:15:52.473Z,54.65
2018-03-14T17:18:20.996Z,55.53
2018-03-14T17:20:49.548Z,54.87
2018-03-14T17:23:18.030Z,55.56
2018-03-14T17:25:47.888Z,55.50
2018-03-14T17:28:16.346Z,54.64
2018-03-14T17:30:44.864Z,55.22
2018-03-14T17:33:13.260Z,56.09
2018-03-14T17:35:41.678Z,55.90
2018-03-14T17:38:10.080Z,55.89
2018-03-14T17:40:50.583Z,55.78
2018-03-14T17:43:19.009Z,56.62
2018-03-14T17:45:47.546Z,56.10
2018-03-14T17:48:16.000Z,56.16
2018-03-14T17:50:44.438Z,56.90
2018-03-14T17:53:12.880Z,56.83
2018-03-14T17:55:41.313Z,57.14
2018-03-14T17:58:09.820Z,56.96
2018-03-14T18:00:38.395Z,57.23
2018-03-14T18:03:06.828Z,58.30
2018-03-14T18:05:35.256Z,57.18
2018-03-14T18:08:03.735Z,57.38
2018-03-14T18:10:32.181Z,57.18
2018-03-14T18:13:00.580Z,57.42
2018-03-14T18:15:29.047Z,57.63
2018-03-14T18:17:57.452Z,58.46
2018-03-14T18:20:25.854Z,57.67
2018-03-14T18:22:54.340Z,57.94
2018-03-14T18:25:22.809Z,58.82
2018-03-14T18:27:51.432Z,58.63
2018-03-14T18:30:19.891Z,58.93
2018-03-14T18:32:48.354Z,57.65
2018-03-14T18:35:16.780Z,57.60
2018-03-14T18:37:45.189Z,57.01
2018-03-14T18:40:13.664Z,58.65
2018-03-14T18:42:42.089Z,58.87
2018-03-14T18:45:10.492Z,58.91
2018-03-14T18:47:38.988Z,59.69
2018-03-14T18:50:07.424Z,58.16
2018-03-14T18:52:35.954Z,57.74
2018-03-14T18:55:04.343Z,57.48
2018-03-14T18:57:32.935Z,59.47
2018-03-14T19:00:01.360Z,59.16
2018-03-14T19:02:29.808Z,58.11
2018-03-14T19:04:58.242Z,58.21
2018-03-14T19:07:26.665Z,57.96
2018-03-14T19:09:55.073Z,58.87
2018-03-14T19:12:23.569Z,58.92
2018-03-14T19:14:51.970Z,58.02
2018-03-14T19:17:20.514Z,58.71
2018-03-14T19:19:48.905Z,58.22
2018-03-14T19:22:17.371Z,58.72
2018-03-14T19:24:45.751Z,59.09
2018-03-14T19:27:14.245Z,59.41
2018-03-14T19:29:42.708Z,59.87
2018-03-14T19:32:11.092Z,58.79
2018-03-14T19:34:39.589Z,59.08
2018-03-14T19:37:08.010Z,58.40
2018-03-14T19:39:36.399Z,59.26
2018-03-14T19:42:04.976Z,58.71
2018-03-14T19:44:33.473Z,59.91
2018-03-14T19:47:01.859Z,58.83
2018-03-14T19:49:30.220Z,60.20
2018-03-14T19:51:58.586Z,61.09
2018-03-14T19:54:27.010Z,60.65
2018-03-14T19:56:55.368Z,59.51
2018-03-14T19:59:23.838Z,58.61
2018-03-14T20:01:52.263Z,60.34
2018-03-14T20:04:20.665Z,59.38
2018-03-14T20:06:49.133Z,61.17
2018-03-14T20:09:17.637Z,61.21
2018-03-14T20:11:46.124Z,60.09
2018-03-14T20:14:14.544Z,59.54
2018-03-14T20:16:42.919Z,59.28
2018-03-14T20:19:11.569Z,60.59
2018-03-14T20:21:40.057Z,59.23
2018-03-14T20:24:08.487Z,58.53
2018-03-14T20:26:36.890Z,59.85
2018-03-14T20:29:05.562Z,58.89
2018-03-14T20:31:34.151Z,58.97
2018-03-14T20:34:02.581Z,58.95
2018-03-14T20:36:31.058Z,60.07
2018-03-14T20:38:59.513Z,59.07
2018-03-14T20:41:27.921Z,60.37
2018-03-14T20:43:56.393Z,59.94
2018-03-14T20:46:24.850Z,59.83
2018-03-14T20:48:53.258Z,59.96
2018-03-14T20:51:21.660Z,60.11
2018-03-14T20:53:50.155Z,59.79
2018-03-14T20:56:18.611Z,58.99
2018-03-14T20:58:47.058Z,59.02
2018-03-14T21:01:15.496Z,58.84
2018-03-14T21:03:43.924Z,59.49
2018-03-14T21:06:12.325Z,59.70
2018-03-14T21:08:41.664Z,58.92
2018-03-14T21:11:10.051Z,58.27
2018-03-14T21:13:38.441Z,58.21
2018-03-14T21:16:06.835Z,58.09
2018-03-14T21:18:35.286Z,57.71
2018-03-14T21:21:03.696Z,57.92
2018-03-14T21:23:32.306Z,59.21
2018-03-14T21:26:00.747Z,60.75
2018-03-14T21:28:29.186Z,60.54
2018-03-14T21:30:57.581Z,60.25
2018-03-14T21:33:26.000Z,62.23
2018-03-14T21:35:54.480Z,59.90
2018-03-14T21:38:22.991Z,59.27
2018-03-14T21:40:51.389Z,59.19
2018-03-14T21:43:19.752Z,62.08
2018-03-14T21:45:48.145Z,61.15
2018-03-14T21:48:16.546Z,65.65
2018-03-14T21:50:44.921Z,65.91
2018-03-14T21:53:13.324Z,65.78
2018-03-14T21:55:41.800Z,63.72
2018-03-14T21:58:10.289Z,64.10
2018-03-14T22:00:38.690Z,64.80
2018-03-14T22:03:07.092Z,66.72
2018-03-14T22:08:10.143Z,67.81
2018-03-14T22:10:38.541Z,66.60
2018-03-14T22:13:06.974Z,65.66
2018-03-14T22:15:35.375Z,66.65
2018-03-14T22:18:03.781Z,65.57
2018-03-14T22:20:32.232Z,64.77
2018-03-14T22:23:00.714Z,65.61
2018-03-14T22:25:29.099Z,64.23
2018-03-14T22:27:57.596Z,64.55
2018-03-14T22:30:26.010Z,61.18
2018-03-14T22:32:54.467Z,61.86
2018-03-14T22:35:22.842Z,63.00
2018-03-14T22:37:51.223Z,63.76
2018-03-14T22:40:19.679Z,64.16
2018-03-14T22:42:48.095Z,64.40
2018-03-14T22:45:16.657Z,62.82
2018-03-14T22:47:45.122Z,61.81
2018-03-14T22:50:13.571Z,64.02
2018-03-14T22:52:42.006Z,63.72
2018-03-14T22:55:10.392Z,63.17
2018-03-14T22:57:38.804Z,61.09
2018-03-14T23:00:07.159Z,65.06
2018-03-14T23:02:35.643Z,63.93
2018-03-14T23:05:04.044Z,64.04
2018-03-14T23:07:32.455Z,67.17
2018-03-14T23:10:00.931Z,65.42
2018-03-14T23:12:29.311Z,61.97
2018-03-14T23:14:57.835Z,64.28
2018-03-14T23:17:26.211Z,65.55
2018-03-14T23:19:54.724Z,62.92
2018-03-14T23:22:23.131Z,65.47
2018-03-14T23:24:51.528Z,61.44
2018-03-14T23:27:19.913Z,65.62
2018-03-14T23:29:48.290Z,62.15
2018-03-14T23:32:16.767Z,64.09
2018-03-14T23:34:45.140Z,65.08
2018-03-14T23:37:13.581Z,65.99
2018-03-14T23:39:41.924Z,64.24
2018-03-14T23:42:10.323Z,66.32
2018-03-14T23:44:38.768Z,62.88
2018-03-14T23:47:07.165Z,64.40
2018-03-14T23:49:35.552Z,67.53
2018-03-14T23:52:03.962Z,65.60
2018-03-14T23:54:32.323Z,62.92
2018-03-14T23:57:00.765Z,60.04
2018-03-14T23:59:29.165Z,66.05
